sensor_id;sensor_type;location;lat;lon;timestamp;temperature;humidity
15617;DHT22;7908;51.688;7.130;2022-08-04T00:01:57;21.00;99.90
15617;DHT22;7908;51.688;7.130;2022-08-04T00:04:34;20.90;99.90
15617;DHT22;7908;51.688;7.130;2022-08-04T00:07:09;20.90;99.90
15617;DHT22;7908;51.688;7.130;2022-08-04T00:09:49;20.90;99.90
15617;DHT22;7908;51.688;7.130;2022-08-04T00:12:24;20.90;99.90
15617;DHT22;7908;51.688;7.130;2022-08-04T00:15:03;20.90;99.90
15617;DHT22;7908;51.688;7.130;2022-08-04T00:17:38;20.90;99.90
15617;DHT22;7908;51.688;7.130;2022-08-04T00:20:10;20.90;99.90
15617;DHT22;7908;51.688;7.130;2022-08-04T00:22:44;20.90;99.90
15617;DHT22;7908;51.688;7.130;2022-08-04T00:25:16;20.90;99.90
15617;DHT22;7908;51.688;7.130;2022-08-04T00:27:52;20.90;99.90
15617;DHT22;7908;51.688;7.130;2022-08-04T00:30:22;20.90;99.90
15617;DHT22;7908;51.688;7.130;2022-08-04T00:32:59;20.90;99.90
15617;DHT22;7908;51.688;7.130;2022-08-04T00:35:31;20.90;99.90
15617;DHT22;7908;51.688;7.130;2022-08-04T00:38:01;20.90;99.90
15617;DHT22;7908;51.688;7.130;2022-08-04T00:40:40;20.90;99.90
15617;DHT22;7908;51.688;7.130;2022-08-04T00:43:20;20.90;99.90
15617;DHT22;7908;51.688;7.130;2022-08-04T00:46:13;21.00;99.90
15617;DHT22;7908;51.688;7.130;2022-08-04T00:49:13;20.90;99.90
15617;DHT22;7908;51.688;7.130;2022-08-04T00:51:57;20.90;99.90
15617;DHT22;7908;51.688;7.130;2022-08-04T00:55:01;20.90;99.90
15617;DHT22;7908;51.688;7.130;2022-08-04T00:57:49;20.90;99.90
15617;DHT22;7908;51.688;7.130;2022-08-04T01:00:22;20.80;99.90
15617;DHT22;7908;51.688;7.130;2022-08-04T01:03:07;20.80;99.90
15617;DHT22;7908;51.688;7.130;2022-08-04T01:05:49;20.80;99.90
15617;DHT22;7908;51.688;7.130;2022-08-04T01:08:40;20.80;99.90
15617;DHT22;7908;51.688;7.130;2022-08-04T01:11:23;20.80;99.90
15617;DHT22;7908;51.688;7.130;2022-08-04T01:17:00;20.70;99.90
15617;DHT22;7908;51.688;7.130;2022-08-04T01:19:59;20.70;99.90
15617;DHT22;7908;51.688;7.130;2022-08-04T01:29:30;20.60;99.90
15617;DHT22;7908;51.688;7.130;2022-08-04T01:32:19;20.60;99.90
15617;DHT22;7908;51.688;7.130;2022-08-04T01:34:55;20.60;99.90
15617;DHT22;7908;51.688;7.130;2022-08-04T01:37:38;20.60;99.90
15617;DHT22;7908;51.688;7.130;2022-08-04T01:40:13;20.60;99.90
15617;DHT22;7908;51.688;7.130;2022-08-04T01:42:44;20.50;99.90
15617;DHT22;7908;51.688;7.130;2022-08-04T01:45:23;20.40;99.90
15617;DHT22;7908;51.688;7.130;2022-08-04T01:47:53;20.40;99.90
15617;DHT22;7908;51.688;7.130;2022-08-04T01:50:23;20.40;99.90
15617;DHT22;7908;51.688;7.130;2022-08-04T01:53:04;20.40;99.90
15617;DHT22;7908;51.688;7.130;2022-08-04T01:55:34;20.30;99.90
15617;DHT22;7908;51.688;7.130;2022-08-04T01:58:23;20.30;99.90
15617;DHT22;7908;51.688;7.130;2022-08-04T02:00:59;20.30;99.90
15617;DHT22;7908;51.688;7.130;2022-08-04T02:03:36;20.30;99.90
15617;DHT22;7908;51.688;7.130;2022-08-04T02:06:34;20.30;99.90
15617;DHT22;7908;51.688;7.130;2022-08-04T02:09:18;20.30;99.90
15617;DHT22;7908;51.688;7.130;2022-08-04T02:11:59;20.20;99.90
15617;DHT22;7908;51.688;7.130;2022-08-04T02:14:35;20.10;99.90
15617;DHT22;7908;51.688;7.130;2022-08-04T02:17:12;20.10;99.90
15617;DHT22;7908;51.688;7.130;2022-08-04T02:19:59;20.00;99.90
15617;DHT22;7908;51.688;7.130;2022-08-04T02:22:32;20.00;99.90
15617;DHT22;7908;51.688;7.130;2022-08-04T02:25:09;20.00;99.90
15617;DHT22;7908;51.688;7.130;2022-08-04T02:28:10;20.00;99.90
15617;DHT22;7908;51.688;7.130;2022-08-04T02:30:49;19.90;99.90
15617;DHT22;7908;51.688;7.130;2022-08-04T02:33:35;20.00;99.90
15617;DHT22;7908;51.688;7.130;2022-08-04T02:36:12;19.90;99.90
15617;DHT22;7908;51.688;7.130;2022-08-04T02:38:54;20.00;99.90
15617;DHT22;7908;51.688;7.130;2022-08-04T02:41:28;20.00;99.90
15617;DHT22;7908;51.688;7.130;2022-08-04T02:43:59;19.90;99.90
15617;DHT22;7908;51.688;7.130;2022-08-04T02:46:30;19.90;99.90
15617;DHT22;7908;51.688;7.130;2022-08-04T02:49:04;19.90;99.90
15617;DHT22;7908;51.688;7.130;2022-08-04T02:51:34;19.90;99.90
15617;DHT22;7908;51.688;7.130;2022-08-04T02:54:05;19.90;99.90
15617;DHT22;7908;51.688;7.130;2022-08-04T02:56:38;19.80;99.90
15617;DHT22;7908;51.688;7.130;2022-08-04T02:59:12;19.90;99.90
15617;DHT22;7908;51.688;7.130;2022-08-04T03:01:42;19.80;99.90
15617;DHT22;7908;51.688;7.130;2022-08-04T03:04:59;19.80;99.90
15617;DHT22;7908;51.688;7.130;2022-08-04T03:14:24;19.80;99.90
15617;DHT22;7908;51.688;7.130;2022-08-04T03:26:59;19.60;99.90
15617;DHT22;7908;51.688;7.130;2022-08-04T03:30:04;19.50;99.90
15617;DHT22;7908;51.688;7.130;2022-08-04T03:33:13;19.40;99.90
15617;DHT22;7908;51.688;7.130;2022-08-04T03:39:13;19.30;99.90
15617;DHT22;7908;51.688;7.130;2022-08-04T03:42:17;19.40;99.90
15617;DHT22;7908;51.688;7.130;2022-08-04T03:48:08;19.30;99.90
15617;DHT22;7908;51.688;7.130;2022-08-04T03:50:54;19.40;99.90
15617;DHT22;7908;51.688;7.130;2022-08-04T04:00:08;19.20;99.90
15617;DHT22;7908;51.688;7.130;2022-08-04T04:03:16;19.20;99.90
15617;DHT22;7908;51.688;7.130;2022-08-04T04:06:38;19.20;99.90
15617;DHT22;7908;51.688;7.130;2022-08-04T04:09:35;19.20;99.90
15617;DHT22;7908;51.688;7.130;2022-08-04T04:12:56;19.20;99.90
15617;DHT22;7908;51.688;7.130;2022-08-04T04:15:58;19.20;99.90
15617;DHT22;7908;51.688;7.130;2022-08-04T04:24:39;19.30;99.90
15617;DHT22;7908;51.688;7.130;2022-08-04T04:27:17;19.30;99.90
15617;DHT22;7908;51.688;7.130;2022-08-04T04:33:17;19.20;99.90
15617;DHT22;7908;51.688;7.130;2022-08-04T04:36:02;19.10;99.90
15617;DHT22;7908;51.688;7.130;2022-08-04T04:39:00;19.10;99.90
15617;DHT22;7908;51.688;7.130;2022-08-04T04:45:00;19.30;99.90
15617;DHT22;7908;51.688;7.130;2022-08-04T04:47:37;19.30;99.90
15617;DHT22;7908;51.688;7.130;2022-08-04T04:50:45;19.40;99.90
15617;DHT22;7908;51.688;7.130;2022-08-04T04:53:23;19.60;99.90
15617;DHT22;7908;51.688;7.130;2022-08-04T04:56:02;19.60;99.90
15617;DHT22;7908;51.688;7.130;2022-08-04T04:58:34;19.70;99.90
15617;DHT22;7908;51.688;7.130;2022-08-04T05:01:17;19.90;99.90
15617;DHT22;7908;51.688;7.130;2022-08-04T05:04:06;20.10;99.90
15617;DHT22;7908;51.688;7.130;2022-08-04T05:07:00;20.20;99.90
15617;DHT22;7908;51.688;7.130;2022-08-04T05:09:50;20.30;99.90
15617;DHT22;7908;51.688;7.130;2022-08-04T05:12:40;20.40;99.90
15617;DHT22;7908;51.688;7.130;2022-08-04T05:15:34;20.70;99.90
15617;DHT22;7908;51.688;7.130;2022-08-04T05:18:13;20.90;99.90
15617;DHT22;7908;51.688;7.130;2022-08-04T05:20:52;21.10;99.90
15617;DHT22;7908;51.688;7.130;2022-08-04T05:23:28;21.30;99.90
15617;DHT22;7908;51.688;7.130;2022-08-04T05:26:00;21.50;99.90
15617;DHT22;7908;51.688;7.130;2022-08-04T05:28:38;21.60;99.90
15617;DHT22;7908;51.688;7.130;2022-08-04T05:31:13;21.70;99.90
15617;DHT22;7908;51.688;7.130;2022-08-04T05:33:51;21.70;99.90
15617;DHT22;7908;51.688;7.130;2022-08-04T05:36:23;21.70;99.90
15617;DHT22;7908;51.688;7.130;2022-08-04T05:39:11;21.80;99.90
15617;DHT22;7908;51.688;7.130;2022-08-04T05:42:03;21.90;99.90
15617;DHT22;7908;51.688;7.130;2022-08-04T05:44:34;21.90;99.90
15617;DHT22;7908;51.688;7.130;2022-08-04T05:47:15;22.00;99.90
15617;DHT22;7908;51.688;7.130;2022-08-04T05:49:51;22.20;99.90
15617;DHT22;7908;51.688;7.130;2022-08-04T05:52:29;22.30;99.90
15617;DHT22;7908;51.688;7.130;2022-08-04T05:55:03;22.50;99.90
15617;DHT22;7908;51.688;7.130;2022-08-04T05:57:34;22.50;99.90
15617;DHT22;7908;51.688;7.130;2022-08-04T06:00:05;22.60;99.90
15617;DHT22;7908;51.688;7.130;2022-08-04T06:02:59;22.60;99.90
15617;DHT22;7908;51.688;7.130;2022-08-04T06:05:30;22.70;99.90
15617;DHT22;7908;51.688;7.130;2022-08-04T06:08:04;22.90;99.90
15617;DHT22;7908;51.688;7.130;2022-08-04T06:10:43;23.00;99.90
15617;DHT22;7908;51.688;7.130;2022-08-04T06:13:17;23.10;99.90
15617;DHT22;7908;51.688;7.130;2022-08-04T06:16:08;23.20;99.90
15617;DHT22;7908;51.688;7.130;2022-08-04T06:19:04;23.40;99.90
15617;DHT22;7908;51.688;7.130;2022-08-04T06:21:58;23.40;99.90
15617;DHT22;7908;51.688;7.130;2022-08-04T06:24:31;23.50;99.90
15617;DHT22;7908;51.688;7.130;2022-08-04T06:27:07;23.50;99.90
15617;DHT22;7908;51.688;7.130;2022-08-04T06:29:44;23.60;99.90
15617;DHT22;7908;51.688;7.130;2022-08-04T06:32:18;23.80;99.90
15617;DHT22;7908;51.688;7.130;2022-08-04T06:35:06;23.90;99.90
15617;DHT22;7908;51.688;7.130;2022-08-04T06:37:38;24.00;99.90
15617;DHT22;7908;51.688;7.130;2022-08-04T06:40:14;24.10;99.90
15617;DHT22;7908;51.688;7.130;2022-08-04T06:43:02;24.20;99.90
15617;DHT22;7908;51.688;7.130;2022-08-04T06:45:34;24.30;99.90
15617;DHT22;7908;51.688;7.130;2022-08-04T06:48:13;24.40;99.90
15617;DHT22;7908;51.688;7.130;2022-08-04T06:50:47;24.50;99.90
15617;DHT22;7908;51.688;7.130;2022-08-04T06:53:37;24.60;99.90
15617;DHT22;7908;51.688;7.130;2022-08-04T06:56:07;24.70;99.90
15617;DHT22;7908;51.688;7.130;2022-08-04T06:58:40;24.90;99.90
15617;DHT22;7908;51.688;7.130;2022-08-04T07:01:16;25.00;99.90
15617;DHT22;7908;51.688;7.130;2022-08-04T07:03:51;25.00;99.90
15617;DHT22;7908;51.688;7.130;2022-08-04T07:06:23;25.10;99.90
15617;DHT22;7908;51.688;7.130;2022-08-04T07:08:56;25.10;99.90
15617;DHT22;7908;51.688;7.130;2022-08-04T07:11:26;25.10;99.90
15617;DHT22;7908;51.688;7.130;2022-08-04T07:14:16;25.10;99.90
15617;DHT22;7908;51.688;7.130;2022-08-04T07:16:53;25.10;99.90
15617;DHT22;7908;51.688;7.130;2022-08-04T07:19:26;25.10;99.90
15617;DHT22;7908;51.688;7.130;2022-08-04T07:21:59;25.20;99.90
15617;DHT22;7908;51.688;7.130;2022-08-04T07:24:53;25.20;99.90
15617;DHT22;7908;51.688;7.130;2022-08-04T07:27:27;25.20;99.90
15617;DHT22;7908;51.688;7.130;2022-08-04T07:30:17;25.30;99.90
15617;DHT22;7908;51.688;7.130;2022-08-04T07:32:58;25.30;99.90
15617;DHT22;7908;51.688;7.130;2022-08-04T07:35:28;25.40;99.90
15617;DHT22;7908;51.688;7.130;2022-08-04T07:38:19;25.50;99.90
15617;DHT22;7908;51.688;7.130;2022-08-04T07:40:57;25.70;99.90
15617;DHT22;7908;51.688;7.130;2022-08-04T07:43:50;26.00;99.90
15617;DHT22;7908;51.688;7.130;2022-08-04T07:46:25;26.30;99.90
15617;DHT22;7908;51.688;7.130;2022-08-04T07:49:02;26.60;99.90
15617;DHT22;7908;51.688;7.130;2022-08-04T07:51:35;26.80;99.90
15617;DHT22;7908;51.688;7.130;2022-08-04T07:54:07;27.00;99.90
15617;DHT22;7908;51.688;7.130;2022-08-04T07:56:45;27.20;99.90
15617;DHT22;7908;51.688;7.130;2022-08-04T07:59:16;27.30;99.90
15617;DHT22;7908;51.688;7.130;2022-08-04T08:01:48;27.50;99.90
15617;DHT22;7908;51.688;7.130;2022-08-04T08:04:18;27.50;99.90
15617;DHT22;7908;51.688;7.130;2022-08-04T08:06:50;27.60;99.90
15617;DHT22;7908;51.688;7.130;2022-08-04T08:09:22;27.70;99.90
15617;DHT22;7908;51.688;7.130;2022-08-04T08:11:59;27.70;99.90
15617;DHT22;7908;51.688;7.130;2022-08-04T08:14:52;27.80;99.90
15617;DHT22;7908;51.688;7.130;2022-08-04T08:17:37;27.90;99.90
15617;DHT22;7908;51.688;7.130;2022-08-04T08:20:29;28.10;99.90
15617;DHT22;7908;51.688;7.130;2022-08-04T08:23:00;28.30;99.90
15617;DHT22;7908;51.688;7.130;2022-08-04T08:25:39;28.40;99.90
15617;DHT22;7908;51.688;7.130;2022-08-04T08:28:09;28.40;99.90
15617;DHT22;7908;51.688;7.130;2022-08-04T08:30:44;28.60;99.90
15617;DHT22;7908;51.688;7.130;2022-08-04T08:33:23;28.60;99.90
15617;DHT22;7908;51.688;7.130;2022-08-04T08:36:00;28.80;99.90
15617;DHT22;7908;51.688;7.130;2022-08-04T08:38:59;29.00;99.90
15617;DHT22;7908;51.688;7.130;2022-08-04T08:44:54;29.30;99.90
15617;DHT22;7908;51.688;7.130;2022-08-04T08:47:47;29.30;99.90
15617;DHT22;7908;51.688;7.130;2022-08-04T08:50:57;29.30;99.90
15617;DHT22;7908;51.688;7.130;2022-08-04T08:54:10;29.50;99.90
15617;DHT22;7908;51.688;7.130;2022-08-04T08:56:53;29.50;99.90
15617;DHT22;7908;51.688;7.130;2022-08-04T08:59:42;29.50;99.90
15617;DHT22;7908;51.688;7.130;2022-08-04T09:08:59;29.80;99.90
15617;DHT22;7908;51.688;7.130;2022-08-04T09:11:38;29.90;99.90
15617;DHT22;7908;51.688;7.130;2022-08-04T09:14:18;30.00;99.90
15617;DHT22;7908;51.688;7.130;2022-08-04T09:16:53;30.10;99.90
15617;DHT22;7908;51.688;7.130;2022-08-04T09:19:27;30.10;99.90
15617;DHT22;7908;51.688;7.130;2022-08-04T09:22:12;30.30;99.90
15617;DHT22;7908;51.688;7.130;2022-08-04T09:24:56;30.40;99.90
15617;DHT22;7908;51.688;7.130;2022-08-04T09:27:37;30.50;99.90
15617;DHT22;7908;51.688;7.130;2022-08-04T09:30:14;30.60;99.90
15617;DHT22;7908;51.688;7.130;2022-08-04T09:33:06;30.60;99.90
15617;DHT22;7908;51.688;7.130;2022-08-04T09:35:47;30.70;99.90
15617;DHT22;7908;51.688;7.130;2022-08-04T09:38:28;30.80;99.90
15617;DHT22;7908;51.688;7.130;2022-08-04T09:41:21;30.90;99.90
15617;DHT22;7908;51.688;7.130;2022-08-04T09:44:25;31.10;99.90
15617;DHT22;7908;51.688;7.130;2022-08-04T09:47:20;31.20;99.60
15617;DHT22;7908;51.688;7.130;2022-08-04T09:50:31;31.20;99.40
15617;DHT22;7908;51.688;7.130;2022-08-04T09:53:28;31.30;99.70
15617;DHT22;7908;51.688;7.130;2022-08-04T09:56:05;31.40;99.60
15617;DHT22;7908;51.688;7.130;2022-08-04T09:59:03;31.50;99.90
15617;DHT22;7908;51.688;7.130;2022-08-04T10:01:38;31.60;98.80
15617;DHT22;7908;51.688;7.130;2022-08-04T10:04:13;31.50;97.70
15617;DHT22;7908;51.688;7.130;2022-08-04T10:09:50;31.40;97.70
15617;DHT22;7908;51.688;7.130;2022-08-04T10:12:34;31.30;98.10
15617;DHT22;7908;51.688;7.130;2022-08-04T10:15:16;31.20;97.80
15617;DHT22;7908;51.688;7.130;2022-08-04T10:18:13;31.20;97.70
15617;DHT22;7908;51.688;7.130;2022-08-04T10:21:00;31.30;97.60
15617;DHT22;7908;51.688;7.130;2022-08-04T10:23:50;31.50;97.60
15617;DHT22;7908;51.688;7.130;2022-08-04T10:26:35;31.60;98.20
15617;DHT22;7908;51.688;7.130;2022-08-04T10:29:17;31.70;97.90
15617;DHT22;7908;51.688;7.130;2022-08-04T10:31:59;31.90;98.00
15617;DHT22;7908;51.688;7.130;2022-08-04T10:34:42;32.10;98.20
15617;DHT22;7908;51.688;7.130;2022-08-04T10:37:19;32.20;97.80
15617;DHT22;7908;51.688;7.130;2022-08-04T10:40:19;32.40;97.40
15617;DHT22;7908;51.688;7.130;2022-08-04T10:43:28;32.40;96.70
15617;DHT22;7908;51.688;7.130;2022-08-04T10:46:11;32.30;95.50
15617;DHT22;7908;51.688;7.130;2022-08-04T10:48:50;32.20;95.60
15617;DHT22;7908;51.688;7.130;2022-08-04T10:51:34;32.20;95.40
15617;DHT22;7908;51.688;7.130;2022-08-04T10:54:34;32.20;94.20
15617;DHT22;7908;51.688;7.130;2022-08-04T10:57:15;32.10;94.10
15617;DHT22;7908;51.688;7.130;2022-08-04T11:00:03;32.10;94.60
15617;DHT22;7908;51.688;7.130;2022-08-04T11:02:50;32.20;94.80
15617;DHT22;7908;51.688;7.130;2022-08-04T11:05:30;32.20;93.60
15617;DHT22;7908;51.688;7.130;2022-08-04T11:08:14;32.10;93.60
15617;DHT22;7908;51.688;7.130;2022-08-04T11:11:00;32.10;93.40
15617;DHT22;7908;51.688;7.130;2022-08-04T11:13:33;32.00;93.60
15617;DHT22;7908;51.688;7.130;2022-08-04T11:16:18;32.00;92.70
15617;DHT22;7908;51.688;7.130;2022-08-04T11:19:09;32.10;92.70
15617;DHT22;7908;51.688;7.130;2022-08-04T11:21:59;32.10;92.60
15617;DHT22;7908;51.688;7.130;2022-08-04T11:24:43;32.20;92.40
15617;DHT22;7908;51.688;7.130;2022-08-04T11:27:19;32.20;92.70
15617;DHT22;7908;51.688;7.130;2022-08-04T11:30:03;32.40;92.50
15617;DHT22;7908;51.688;7.130;2022-08-04T11:32:40;32.60;92.20
15617;DHT22;7908;51.688;7.130;2022-08-04T11:35:37;32.60;92.00
15617;DHT22;7908;51.688;7.130;2022-08-04T11:38:16;32.80;92.20
15617;DHT22;7908;51.688;7.130;2022-08-04T11:40:59;32.80;91.50
15617;DHT22;7908;51.688;7.130;2022-08-04T11:43:43;32.80;91.80
15617;DHT22;7908;51.688;7.130;2022-08-04T11:46:33;32.70;91.80
15617;DHT22;7908;51.688;7.130;2022-08-04T11:49:11;32.60;91.90
15617;DHT22;7908;51.688;7.130;2022-08-04T11:51:55;32.60;92.10
15617;DHT22;7908;51.688;7.130;2022-08-04T11:54:26;32.60;92.70
15617;DHT22;7908;51.688;7.130;2022-08-04T11:56:56;32.80;92.60
15617;DHT22;7908;51.688;7.130;2022-08-04T11:59:30;32.90;92.50
15617;DHT22;7908;51.688;7.130;2022-08-04T12:02:25;33.00;92.10
15617;DHT22;7908;51.688;7.130;2022-08-04T12:05:00;33.10;92.20
15617;DHT22;7908;51.688;7.130;2022-08-04T12:07:43;33.10;92.30
15617;DHT22;7908;51.688;7.130;2022-08-04T12:10:27;33.00;92.30
15617;DHT22;7908;51.688;7.130;2022-08-04T12:13:19;33.00;92.50
15617;DHT22;7908;51.688;7.130;2022-08-04T12:16:02;32.80;92.00
15617;DHT22;7908;51.688;7.130;2022-08-04T12:18:37;32.60;92.50
15617;DHT22;7908;51.688;7.130;2022-08-04T12:21:17;32.50;92.40
15617;DHT22;7908;51.688;7.130;2022-08-04T12:23:57;32.30;92.40
15617;DHT22;7908;51.688;7.130;2022-08-04T12:26:43;32.00;92.90
15617;DHT22;7908;51.688;7.130;2022-08-04T12:29:19;31.90;93.30
15617;DHT22;7908;51.688;7.130;2022-08-04T12:31:59;31.60;92.70
15617;DHT22;7908;51.688;7.130;2022-08-04T12:34:43;31.30;93.50
15617;DHT22;7908;51.688;7.130;2022-08-04T12:37:25;31.10;92.90
15617;DHT22;7908;51.688;7.130;2022-08-04T12:40:05;30.90;93.20
15617;DHT22;7908;51.688;7.130;2022-08-04T12:43:04;30.90;93.50
15617;DHT22;7908;51.688;7.130;2022-08-04T12:45:46;30.90;93.50
15617;DHT22;7908;51.688;7.130;2022-08-04T12:48:24;30.80;94.10
15617;DHT22;7908;51.688;7.130;2022-08-04T12:50:59;30.70;95.10
15617;DHT22;7908;51.688;7.130;2022-08-04T12:53:32;30.60;95.90
15617;DHT22;7908;51.688;7.130;2022-08-04T12:56:24;30.40;96.80
15617;DHT22;7908;51.688;7.130;2022-08-04T12:59:01;30.30;97.40
15617;DHT22;7908;51.688;7.130;2022-08-04T13:01:31;30.30;97.60
15617;DHT22;7908;51.688;7.130;2022-08-04T13:04:22;30.20;97.90
15617;DHT22;7908;51.688;7.130;2022-08-04T13:06:59;30.10;98.50
15617;DHT22;7908;51.688;7.130;2022-08-04T13:09:37;30.20;98.40
15617;DHT22;7908;51.688;7.130;2022-08-04T13:12:12;30.20;98.40
15617;DHT22;7908;51.688;7.130;2022-08-04T13:14:50;30.30;98.20
15617;DHT22;7908;51.688;7.130;2022-08-04T13:17:50;30.30;98.60
15617;DHT22;7908;51.688;7.130;2022-08-04T13:20:25;30.40;98.40
15617;DHT22;7908;51.688;7.130;2022-08-04T13:23:02;30.30;98.60
15617;DHT22;7908;51.688;7.130;2022-08-04T13:25:40;30.30;99.00
15617;DHT22;7908;51.688;7.130;2022-08-04T13:28:39;30.20;99.10
15617;DHT22;7908;51.688;7.130;2022-08-04T13:31:14;30.10;98.60
15617;DHT22;7908;51.688;7.130;2022-08-04T13:33:47;30.10;98.80
15617;DHT22;7908;51.688;7.130;2022-08-04T13:36:24;30.00;99.20
15617;DHT22;7908;51.688;7.130;2022-08-04T13:39:03;30.00;99.30
15617;DHT22;7908;51.688;7.130;2022-08-04T13:41:38;29.90;99.70
15617;DHT22;7908;51.688;7.130;2022-08-04T13:44:22;29.80;99.90
15617;DHT22;7908;51.688;7.130;2022-08-04T13:47:00;29.90;99.70
15617;DHT22;7908;51.688;7.130;2022-08-04T13:49:32;30.00;99.90
15617;DHT22;7908;51.688;7.130;2022-08-04T13:52:25;30.20;99.80
15617;DHT22;7908;51.688;7.130;2022-08-04T13:55:04;30.30;99.90
15617;DHT22;7908;51.688;7.130;2022-08-04T13:57:42;30.30;99.20
15617;DHT22;7908;51.688;7.130;2022-08-04T14:00:16;30.30;99.30
15617;DHT22;7908;51.688;7.130;2022-08-04T14:03:05;30.40;99.10
15617;DHT22;7908;51.688;7.130;2022-08-04T14:06:10;30.60;99.10
15617;DHT22;7908;51.688;7.130;2022-08-04T14:08:47;30.70;98.90
15617;DHT22;7908;51.688;7.130;2022-08-04T14:11:32;30.90;99.00
15617;DHT22;7908;51.688;7.130;2022-08-04T14:14:28;30.90;98.20
15617;DHT22;7908;51.688;7.130;2022-08-04T14:17:09;31.00;99.00
15617;DHT22;7908;51.688;7.130;2022-08-04T14:20:01;30.90;97.50
15617;DHT22;7908;51.688;7.130;2022-08-04T14:22:36;30.90;98.00
15617;DHT22;7908;51.688;7.130;2022-08-04T14:25:09;30.90;97.50
15617;DHT22;7908;51.688;7.130;2022-08-04T14:27:46;30.80;97.70
15617;DHT22;7908;51.688;7.130;2022-08-04T14:30:24;30.90;98.60
15617;DHT22;7908;51.688;7.130;2022-08-04T14:32:56;31.00;97.70
15617;DHT22;7908;51.688;7.130;2022-08-04T14:36:02;31.20;98.50
15617;DHT22;7908;51.688;7.130;2022-08-04T14:38:50;31.20;97.60
15617;DHT22;7908;51.688;7.130;2022-08-04T14:41:28;31.20;97.60
15617;DHT22;7908;51.688;7.130;2022-08-04T14:44:03;31.20;98.40
15617;DHT22;7908;51.688;7.130;2022-08-04T14:46:48;31.20;98.80
15617;DHT22;7908;51.688;7.130;2022-08-04T14:49:18;31.20;97.70
15617;DHT22;7908;51.688;7.130;2022-08-04T14:51:54;31.10;98.00
15617;DHT22;7908;51.688;7.130;2022-08-04T14:54:27;30.90;98.70
15617;DHT22;7908;51.688;7.130;2022-08-04T14:57:02;30.90;98.40
15617;DHT22;7908;51.688;7.130;2022-08-04T14:59:40;30.80;98.20
15617;DHT22;7908;51.688;7.130;2022-08-04T15:02:27;30.90;98.40
15617;DHT22;7908;51.688;7.130;2022-08-04T15:04:57;31.00;98.30
15617;DHT22;7908;51.688;7.130;2022-08-04T15:07:54;31.20;97.80
15617;DHT22;7908;51.688;7.130;2022-08-04T15:10:31;31.30;98.10
15617;DHT22;7908;51.688;7.130;2022-08-04T15:13:06;31.20;97.50
15617;DHT22;7908;51.688;7.130;2022-08-04T15:15:46;31.20;96.80
15617;DHT22;7908;51.688;7.130;2022-08-04T15:18:37;31.20;96.10
15617;DHT22;7908;51.688;7.130;2022-08-04T15:21:16;31.00;96.80
15617;DHT22;7908;51.688;7.130;2022-08-04T15:23:49;31.00;96.80
15617;DHT22;7908;51.688;7.130;2022-08-04T15:26:29;30.90;96.50
15617;DHT22;7908;51.688;7.130;2022-08-04T15:29:07;30.80;97.10
15617;DHT22;7908;51.688;7.130;2022-08-04T15:31:44;30.60;97.40
15617;DHT22;7908;51.688;7.130;2022-08-04T15:35:01;30.40;97.90
15617;DHT22;7908;51.688;7.130;2022-08-04T15:37:38;30.20;98.60
15617;DHT22;7908;51.688;7.130;2022-08-04T15:40:20;30.10;99.20
15617;DHT22;7908;51.688;7.130;2022-08-04T15:43:10;30.00;99.40
15617;DHT22;7908;51.688;7.130;2022-08-04T15:45:51;29.80;99.50
15617;DHT22;7908;51.688;7.130;2022-08-04T15:48:42;29.80;99.80
15617;DHT22;7908;51.688;7.130;2022-08-04T15:51:14;29.80;99.90
15617;DHT22;7908;51.688;7.130;2022-08-04T15:54:20;29.80;99.60
15617;DHT22;7908;51.688;7.130;2022-08-04T15:57:03;29.80;99.50
15617;DHT22;7908;51.688;7.130;2022-08-04T15:59:55;29.80;98.80
15617;DHT22;7908;51.688;7.130;2022-08-04T16:02:44;29.90;98.60
15617;DHT22;7908;51.688;7.130;2022-08-04T16:05:33;30.00;98.10
15617;DHT22;7908;51.688;7.130;2022-08-04T16:08:23;30.10;97.90
15617;DHT22;7908;51.688;7.130;2022-08-04T16:10:56;30.10;97.90
15617;DHT22;7908;51.688;7.130;2022-08-04T16:13:30;30.00;97.90
15617;DHT22;7908;51.688;7.130;2022-08-04T16:16:00;30.00;97.70
15617;DHT22;7908;51.688;7.130;2022-08-04T16:18:40;29.90;98.10
15617;DHT22;7908;51.688;7.130;2022-08-04T16:21:20;29.90;98.20
15617;DHT22;7908;51.688;7.130;2022-08-04T16:24:17;29.70;98.50
15617;DHT22;7908;51.688;7.130;2022-08-04T16:26:50;29.60;98.50
15617;DHT22;7908;51.688;7.130;2022-08-04T16:29:32;29.60;97.90
15617;DHT22;7908;51.688;7.130;2022-08-04T16:32:18;29.40;98.40
15617;DHT22;7908;51.688;7.130;2022-08-04T16:34:56;29.40;99.30
15617;DHT22;7908;51.688;7.130;2022-08-04T16:37:32;29.50;99.10
15617;DHT22;7908;51.688;7.130;2022-08-04T16:40:32;29.60;99.50
15617;DHT22;7908;51.688;7.130;2022-08-04T16:43:09;29.70;99.10
15617;DHT22;7908;51.688;7.130;2022-08-04T16:46:00;29.60;99.70
15617;DHT22;7908;51.688;7.130;2022-08-04T16:49:05;29.60;99.90
15617;DHT22;7908;51.688;7.130;2022-08-04T16:51:37;29.40;99.90
15617;DHT22;7908;51.688;7.130;2022-08-04T16:54:07;29.30;99.90
15617;DHT22;7908;51.688;7.130;2022-08-04T16:56:37;29.10;99.90
15617;DHT22;7908;51.688;7.130;2022-08-04T16:59:09;29.00;99.90
15617;DHT22;7908;51.688;7.130;2022-08-04T17:01:46;28.90;99.90
15617;DHT22;7908;51.688;7.130;2022-08-04T17:04:30;28.80;99.90
15617;DHT22;7908;51.688;7.130;2022-08-04T17:07:14;28.70;99.90
15617;DHT22;7908;51.688;7.130;2022-08-04T17:09:49;28.70;99.90
15617;DHT22;7908;51.688;7.130;2022-08-04T17:12:27;28.70;99.90
15617;DHT22;7908;51.688;7.130;2022-08-04T17:15:19;28.70;99.90
15617;DHT22;7908;51.688;7.130;2022-08-04T17:18:17;28.60;99.90
15617;DHT22;7908;51.688;7.130;2022-08-04T17:20:52;28.50;99.90
15617;DHT22;7908;51.688;7.130;2022-08-04T17:23:35;28.30;99.90
15617;DHT22;7908;51.688;7.130;2022-08-04T17:26:36;28.30;99.90
15617;DHT22;7908;51.688;7.130;2022-08-04T17:29:22;28.30;99.90
15617;DHT22;7908;51.688;7.130;2022-08-04T17:32:19;28.20;99.90
15617;DHT22;7908;51.688;7.130;2022-08-04T17:34:57;28.10;99.90
15617;DHT22;7908;51.688;7.130;2022-08-04T17:37:33;28.00;99.90
15617;DHT22;7908;51.688;7.130;2022-08-04T17:40:26;27.90;99.90
15617;DHT22;7908;51.688;7.130;2022-08-04T17:43:05;27.70;99.90
15617;DHT22;7908;51.688;7.130;2022-08-04T17:46:20;27.70;99.90
15617;DHT22;7908;51.688;7.130;2022-08-04T17:49:06;27.60;99.90
15617;DHT22;7908;51.688;7.130;2022-08-04T17:51:45;27.50;99.90
15617;DHT22;7908;51.688;7.130;2022-08-04T17:54:34;27.40;99.90
15617;DHT22;7908;51.688;7.130;2022-08-04T17:57:16;27.40;99.90
15617;DHT22;7908;51.688;7.130;2022-08-04T17:59:51;27.30;99.90
15617;DHT22;7908;51.688;7.130;2022-08-04T18:02:30;27.20;99.90
15617;DHT22;7908;51.688;7.130;2022-08-04T18:05:06;27.10;99.90
15617;DHT22;7908;51.688;7.130;2022-08-04T18:07:42;27.10;99.90
15617;DHT22;7908;51.688;7.130;2022-08-04T18:10:38;27.10;99.90
15617;DHT22;7908;51.688;7.130;2022-08-04T18:13:21;27.10;99.90
15617;DHT22;7908;51.688;7.130;2022-08-04T18:16:02;27.00;99.90
15617;DHT22;7908;51.688;7.130;2022-08-04T18:19:10;26.90;99.90
15617;DHT22;7908;51.688;7.130;2022-08-04T18:21:41;26.80;99.90
15617;DHT22;7908;51.688;7.130;2022-08-04T18:24:34;26.70;99.90
15617;DHT22;7908;51.688;7.130;2022-08-04T18:27:24;26.60;99.90